createdAt,value
2022-11-02T00:00:29.832Z,26.73
2022-11-02T00:02:58.379Z,27.63
2022-11-02T00:05:26.870Z,26.27
2022-11-02T00:07:56.338Z,26.17
2022-11-02T00:10:26.738Z,26.13
2022-11-02T00:12:55.049Z,26.17
2022-11-02T00:15:25.419Z,24.70
2022-11-02T00:17:56.978Z,24.90
2022-11-02T00:20:27.850Z,25.50
2022-11-02T00:22:59.557Z,26.73
2022-11-02T00:25:30.587Z,26.27
2022-11-02T00:27:58.941Z,25.33
2022-11-02T00:30:27.206Z,25.43
2022-11-02T00:32:57.173Z,25.67
2022-11-02T00:35:25.448Z,27.07
2022-11-02T00:37:53.678Z,24.47
2022-11-02T00:40:22.259Z,23.27
2022-11-02T00:42:51.791Z,24.40
2022-11-02T00:45:20.226Z,22.80
2022-11-02T00:47:49.405Z,23.73
2022-11-02T00:50:17.931Z,21.90
2022-11-02T00:52:46.446Z,22.53
2022-11-02T00:55:15.816Z,24.17
2022-11-02T00:57:46.315Z,21.23
2022-11-02T01:00:17.211Z,21.93
2022-11-02T01:02:45.628Z,22.00
2022-11-02T01:05:14.099Z,20.03
2022-11-02T01:07:42.409Z,19.30
2022-11-02T01:10:12.435Z,20.90
2022-11-02T01:12:41.914Z,21.40
2022-11-02T01:15:12.391Z,22.83
2022-11-02T01:17:42.588Z,21.67
2022-11-02T01:20:11.619Z,23.27
2022-11-02T01:22:39.907Z,23.63
2022-11-02T01:25:09.220Z,22.73
2022-11-02T01:27:37.570Z,22.03
2022-11-02T01:30:06.998Z,21.23
2022-11-02T01:32:35.258Z,20.43
2022-11-02T01:35:05.048Z,20.30
2022-11-02T01:37:33.289Z,21.97
2022-11-02T01:40:01.682Z,22.80
2022-11-02T01:42:29.974Z,22.03
2022-11-02T01:44:58.477Z,21.70
2022-11-02T01:47:31.334Z,23.67
2022-11-02T01:50:06.677Z,23.50
2022-11-02T01:52:36.859Z,24.63
2022-11-02T01:55:11.672Z,25.13
2022-11-02T01:57:42.509Z,26.23
2022-11-02T02:00:15.191Z,28.53
2022-11-02T02:02:48.237Z,26.90
2022-11-02T02:05:18.867Z,25.93
2022-11-02T02:07:48.579Z,25.83
2022-11-02T02:10:16.956Z,26.07
2022-11-02T02:12:45.812Z,28.60
2022-11-02T02:15:18.255Z,27.20
2022-11-02T02:17:52.337Z,30.23
2022-11-02T02:20:39.227Z,29.50
2022-11-02T02:23:27.967Z,26.80
2022-11-02T02:26:30.873Z,28.67
2022-11-02T02:29:04.848Z,26.33
2022-11-02T02:31:37.897Z,27.43
2022-11-02T02:34:14.250Z,26.77
2022-11-02T02:36:48.877Z,27.53
2022-11-02T02:39:23.028Z,28.90
2022-11-02T02:42:00.114Z,27.83
2022-11-02T02:44:35.444Z,27.17
2022-11-02T02:47:09.657Z,28.97
2022-11-02T02:49:44.001Z,27.93
2022-11-02T02:52:13.805Z,26.90
2022-11-02T02:54:44.913Z,28.20
2022-11-02T02:57:18.732Z,29.37
2022-11-02T02:59:49.707Z,28.83
2022-11-02T03:02:24.680Z,28.70
2022-11-02T03:04:54.410Z,30.77
2022-11-02T03:07:31.027Z,30.27
2022-11-02T03:10:12.808Z,30.50
2022-11-02T03:12:51.447Z,31.87
2022-11-02T03:15:32.825Z,30.30
2022-11-02T03:18:07.354Z,30.77
2022-11-02T03:20:49.701Z,29.40
2022-11-02T03:23:23.006Z,28.00
2022-11-02T03:26:00.688Z,28.40
2022-11-02T03:28:42.234Z,26.10
2022-11-02T03:31:18.189Z,27.13
2022-11-02T03:33:54.748Z,27.20
2022-11-02T03:36:32.474Z,28.23
2022-11-02T03:39:06.240Z,31.33
2022-11-02T03:41:38.530Z,36.17
2022-11-02T03:44:12.333Z,27.70
2022-11-02T03:46:44.316Z,29.13
2022-11-02T03:49:19.864Z,30.97
2022-11-02T03:51:51.907Z,29.33
2022-11-02T03:54:28.395Z,29.93
2022-11-02T03:59:33.564Z,27.13
2022-11-02T04:02:03.683Z,27.13
2022-11-02T04:04:32.506Z,25.93
2022-11-02T04:07:01.029Z,27.50
2022-11-02T04:09:29.468Z,28.27
2022-11-02T04:12:11.826Z,25.80
2022-11-02T04:14:41.056Z,28.07
2022-11-02T04:17:32.308Z,27.07
2022-11-02T04:20:03.488Z,27.03
2022-11-02T04:23:04.061Z,26.80
2022-11-02T04:25:32.472Z,27.47
2022-11-02T04:28:15.540Z,26.20
2022-11-02T04:30:50.678Z,25.23
2022-11-02T04:33:33.992Z,24.73
2022-11-02T04:36:11.548Z,24.03
2022-11-02T04:38:40.485Z,26.33
2022-11-02T04:41:36.922Z,25.83
2022-11-02T04:44:08.976Z,26.40
2022-11-02T04:46:40.478Z,28.63
2022-11-02T04:49:12.472Z,25.63
2022-11-02T04:51:45.730Z,27.50
2022-11-02T04:54:17.969Z,26.57
2022-11-02T04:56:48.058Z,31.03
2022-11-02T04:59:17.528Z,29.13
2022-11-02T05:01:46.038Z,28.23
2022-11-02T05:04:17.432Z,28.47
2022-11-02T05:06:47.017Z,27.03
2022-11-02T05:09:15.278Z,27.40
2022-11-02T05:11:47.063Z,28.80
2022-11-02T05:14:15.387Z,28.93
2022-11-02T05:16:44.355Z,30.10
2022-11-02T05:19:14.726Z,27.70
2022-11-02T05:21:46.468Z,28.17
2022-11-02T05:24:15.348Z,30.03
2022-11-02T05:26:43.964Z,28.13
2022-11-02T05:29:12.395Z,25.70
2022-11-02T05:31:40.978Z,29.43
2022-11-02T05:34:09.255Z,28.33
2022-11-02T05:36:38.116Z,28.93
2022-11-02T05:39:07.994Z,25.50
2022-11-02T05:41:36.337Z,23.87
2022-11-02T05:44:04.771Z,22.50
2022-11-02T05:46:33.646Z,22.80
2022-11-02T05:49:01.857Z,21.70
2022-11-02T05:51:30.084Z,21.90
2022-11-02T05:53:59.247Z,20.77
2022-11-02T05:56:28.965Z,21.83
2022-11-02T05:58:57.318Z,20.87
2022-11-02T06:01:25.799Z,20.07
2022-11-02T06:03:54.504Z,20.87
2022-11-02T06:06:23.170Z,21.30
2022-11-02T06:08:51.439Z,19.30
2022-11-02T06:11:20.037Z,19.13
2022-11-02T06:13:51.705Z,21.40
2022-11-02T06:16:23.183Z,21.40
2022-11-02T06:18:52.071Z,19.23
2022-11-02T06:21:20.413Z,19.50
2022-11-02T06:23:49.105Z,18.60
2022-11-02T06:26:17.793Z,20.30
2022-11-02T06:28:46.057Z,19.93
2022-11-02T06:31:17.493Z,19.17
2022-11-02T06:33:46.491Z,19.57
2022-11-02T06:36:14.779Z,19.60
2022-11-02T06:38:43.168Z,19.77
2022-11-02T06:41:11.629Z,19.77
2022-11-02T06:43:41.075Z,21.50
2022-11-02T06:46:09.596Z,21.43
2022-11-02T06:48:39.255Z,20.27
2022-11-02T06:51:07.677Z,18.80
2022-11-02T06:53:35.996Z,19.03
2022-11-02T06:56:04.505Z,22.87
2022-11-02T06:58:32.989Z,21.83
2022-11-02T07:01:03.077Z,23.37
2022-11-02T07:03:32.320Z,24.50
2022-11-02T07:06:02.259Z,24.60
2022-11-02T07:08:30.676Z,25.07
2022-11-02T07:10:59.430Z,24.97
2022-11-02T07:13:28.633Z,23.83
2022-11-02T07:15:57.093Z,22.60
2022-11-02T07:18:25.488Z,23.83
2022-11-02T07:20:53.749Z,25.00
2022-11-02T07:23:24.287Z,25.73
2022-11-02T07:25:53.159Z,26.83
2022-11-02T07:28:22.060Z,26.73
2022-11-02T07:30:50.387Z,21.40
2022-11-02T07:33:18.655Z,23.67
2022-11-02T07:35:46.966Z,24.23
2022-11-02T07:38:15.696Z,20.70
2022-11-02T07:40:45.267Z,21.67
2022-11-02T07:43:13.487Z,22.00
2022-11-02T07:45:54.471Z,18.53
2022-11-02T07:48:22.829Z,19.30
2022-11-02T07:50:51.153Z,17.97
2022-11-02T07:53:19.425Z,16.37
2022-11-02T07:55:49.011Z,17.57
2022-11-02T07:58:17.283Z,19.27
2022-11-02T08:00:45.621Z,19.73
2022-11-02T08:03:14.933Z,18.70
2022-11-02T08:05:44.155Z,19.10
2022-11-02T08:08:14.673Z,17.63
2022-11-02T08:10:43.991Z,16.33
2022-11-02T08:13:15.741Z,16.03
2022-11-02T08:15:44.267Z,15.17
2022-11-02T08:18:15.778Z,15.40
2022-11-02T08:20:45.927Z,13.63
2022-11-02T08:23:15.637Z,14.13
2022-11-02T08:25:45.791Z,15.00
2022-11-02T08:28:17.400Z,13.87
2022-11-02T08:30:45.719Z,13.90
2022-11-02T08:33:15.863Z,13.32
2022-11-02T08:35:46.094Z,13.95
2022-11-02T08:38:15.095Z,14.23
2022-11-02T08:40:44.823Z,15.30
2022-11-02T08:43:15.912Z,14.85
2022-11-02T08:48:33.956Z,14.98
2022-11-02T08:51:02.800Z,15.77
2022-11-02T08:53:31.189Z,15.35
2022-11-02T08:55:59.634Z,15.90
2022-11-02T08:58:29.186Z,14.18
2022-11-02T09:00:57.728Z,14.52
2022-11-02T09:03:27.316Z,16.13
2022-11-02T09:05:59.866Z,16.02
2022-11-02T09:08:28.988Z,15.13
2022-11-02T09:11:01.068Z,15.30
2022-11-02T09:13:31.370Z,14.15
2022-11-02T09:16:00.820Z,15.75
2022-11-02T09:18:29.457Z,15.65
2022-11-02T09:20:58.409Z,15.55
2022-11-02T09:23:26.757Z,15.52
2022-11-02T09:25:55.010Z,16.00
2022-11-02T09:28:23.312Z,15.63
2022-11-02T09:30:52.926Z,15.38
2022-11-02T09:33:21.334Z,16.35
2022-11-02T09:35:50.668Z,15.93
2022-11-02T09:38:19.518Z,16.15
2022-11-02T09:40:56.193Z,16.63
2022-11-02T09:43:38.589Z,17.23
2022-11-02T09:46:10.568Z,16.38
2022-11-02T09:48:44.127Z,15.70
2022-11-02T09:51:16.521Z,15.55
2022-11-02T09:53:56.500Z,15.98
2022-11-02T09:56:25.198Z,15.18
2022-11-02T09:59:00.325Z,16.35
2022-11-02T10:01:55.486Z,15.45
2022-11-02T10:04:49.590Z,15.23
2022-11-02T10:07:30.461Z,20.33
2022-11-02T10:10:04.539Z,16.23
2022-11-02T10:12:40.738Z,15.68
2022-11-02T10:15:16.893Z,16.88
2022-11-02T10:17:49.099Z,17.33
2022-11-02T10:20:26.250Z,15.52
2022-11-02T10:23:00.508Z,17.38
2022-11-02T10:25:29.056Z,15.05
2022-11-02T10:28:04.825Z,16.35
2022-11-02T10:30:33.880Z,14.80
2022-11-02T10:33:03.816Z,14.00
2022-11-02T10:36:12.459Z,14.73
2022-11-02T10:38:45.865Z,12.85
2022-11-02T10:41:35.809Z,13.95
2022-11-02T10:44:21.537Z,16.73
2022-11-02T10:47:01.699Z,14.57
2022-11-02T10:49:59.376Z,14.73
2022-11-02T10:52:30.361Z,15.20
2022-11-02T10:54:58.622Z,14.32
2022-11-02T10:57:28.487Z,14.30
2022-11-02T11:00:25.705Z,15.63
2022-11-02T11:03:14.812Z,14.68
2022-11-02T11:05:59.248Z,14.68
2022-11-02T11:08:31.579Z,15.27
2022-11-02T11:11:15.754Z,13.90
2022-11-02T11:16:41.690Z,15.52
2022-11-02T11:19:41.479Z,15.25
2022-11-02T11:22:29.795Z,14.43
2022-11-02T11:25:27.059Z,14.00
2022-11-02T11:27:58.223Z,14.10
2022-11-02T11:30:54.045Z,12.57
2022-11-02T11:33:20.596Z,13.40
2022-11-02T11:35:51.332Z,12.60
2022-11-02T11:38:23.971Z,12.60
2022-11-02T11:40:55.641Z,15.90
2022-11-02T11:43:27.309Z,14.07
2022-11-02T11:46:03.714Z,13.90
2022-11-02T11:48:38.387Z,14.43
2022-11-02T11:51:29.403Z,15.48
2022-11-02T11:54:18.935Z,15.88
2022-11-02T11:56:47.798Z,16.38
2022-11-02T11:59:28.483Z,16.48
2022-11-02T12:01:59.404Z,16.27
2022-11-02T12:04:33.110Z,16.23
2022-11-02T12:07:32.266Z,16.02
2022-11-02T12:10:16.447Z,15.20
2022-11-02T12:12:59.556Z,15.82
2022-11-02T12:15:42.458Z,14.80
2022-11-02T12:18:33.275Z,15.63
2022-11-02T12:21:15.355Z,14.38
2022-11-02T12:24:06.450Z,16.80
2022-11-02T12:26:48.765Z,15.02
2022-11-02T12:29:39.379Z,12.60
2022-11-02T12:32:19.318Z,14.18
2022-11-02T12:35:27.946Z,13.90
2022-11-02T12:38:11.549Z,14.02
2022-11-02T12:40:49.720Z,13.15
2022-11-02T12:43:33.646Z,14.15
2022-11-02T12:46:05.879Z,12.23
2022-11-02T12:48:43.875Z,12.98
2022-11-02T12:51:16.206Z,11.68
2022-11-02T12:53:50.140Z,10.95
2022-11-02T12:56:23.886Z,11.55
2022-11-02T12:58:53.594Z,11.90
2022-11-02T13:01:27.986Z,11.18
2022-11-02T13:04:03.266Z,10.80
2022-11-02T13:06:36.057Z,11.30
2022-11-02T13:09:09.170Z,12.40
2022-11-02T13:11:41.385Z,12.23
2022-11-02T13:14:15.973Z,12.35
2022-11-02T13:16:49.966Z,12.15
2022-11-02T13:19:23.156Z,10.93
2022-11-02T13:21:56.016Z,11.32
2022-11-02T13:24:31.772Z,10.50
2022-11-02T13:27:14.326Z,11.85
2022-11-02T13:29:50.850Z,11.35
2022-11-02T13:32:28.417Z,11.40
2022-11-02T13:35:06.045Z,11.07
2022-11-02T13:37:40.890Z,10.98
2022-11-02T13:40:17.870Z,11.55
2022-11-02T13:43:20.518Z,11.75
2022-11-02T13:46:24.596Z,11.52
2022-11-02T13:48:58.477Z,10.77
2022-11-02T13:51:32.483Z,12.05
2022-11-02T13:54:04.380Z,11.65
2022-11-02T13:56:36.398Z,11.82
2022-11-02T13:59:07.477Z,12.35
2022-11-02T14:01:42.648Z,12.60
2022-11-02T14:04:14.358Z,11.50
2022-11-02T14:06:52.627Z,12.05
2022-11-02T14:09:32.127Z,12.05
2022-11-02T14:12:29.309Z,12.70
2022-11-02T14:15:30.833Z,12.95
2022-11-02T14:18:06.583Z,12.13
2022-11-02T14:20:37.172Z,13.13
2022-11-02T14:23:37.604Z,13.52
2022-11-02T14:26:06.178Z,13.70
2022-11-02T14:28:42.067Z,13.52
2022-11-02T14:31:36.060Z,14.90
2022-11-02T14:34:22.139Z,14.40
2022-11-02T14:37:04.497Z,14.67
2022-11-02T14:39:43.041Z,15.50
2022-11-02T14:42:27.091Z,16.97
2022-11-02T14:45:31.050Z,16.50
2022-11-02T14:48:01.947Z,16.67
2022-11-02T14:50:32.202Z,17.27
2022-11-02T14:53:05.907Z,18.13
2022-11-02T14:55:36.611Z,19.00
2022-11-02T14:58:11.205Z,18.37
2022-11-02T15:00:55.593Z,20.17
2022-11-02T15:03:33.802Z,18.87
2022-11-02T15:06:06.451Z,19.43
2022-11-02T15:08:37.439Z,19.63
2022-11-02T15:11:39.277Z,20.23
2022-11-02T15:14:52.829Z,20.83
2022-11-02T15:18:09.050Z,20.37
2022-11-02T15:20:40.198Z,20.73
2022-11-02T15:23:30.977Z,20.60
2022-11-02T15:26:00.925Z,20.03
2022-11-02T15:28:33.715Z,19.53
2022-11-02T15:31:05.556Z,20.43
2022-11-02T15:33:38.166Z,20.20
2022-11-02T15:36:09.605Z,20.93
2022-11-02T15:38:40.415Z,20.50
2022-11-02T15:41:27.825Z,21.30
2022-11-02T15:44:16.239Z,20.67
2022-11-02T15:46:56.089Z,20.40
2022-11-02T15:49:38.085Z,20.80
2022-11-02T15:52:18.397Z,20.50
2022-11-02T15:54:58.461Z,20.63
2022-11-02T15:57:37.702Z,20.37
2022-11-02T16:00:15.178Z,20.83
2022-11-02T16:02:46.826Z,21.10
2022-11-02T16:05:21.340Z,21.00
2022-11-02T16:08:09.986Z,19.60
2022-11-02T16:10:40.411Z,20.93
2022-11-02T16:13:17.894Z,22.73
2022-11-02T16:15:48.683Z,22.20
2022-11-02T16:18:27.558Z,21.90
2022-11-02T16:20:59.643Z,21.50
2022-11-02T16:23:30.144Z,21.60
2022-11-02T16:26:02.067Z,21.97
2022-11-02T16:28:32.192Z,21.70
2022-11-02T16:31:13.524Z,21.97
2022-11-02T16:33:48.618Z,22.90
2022-11-02T16:36:19.405Z,21.87
2022-11-02T16:38:50.756Z,21.93
2022-11-02T16:41:20.725Z,22.37
2022-11-02T16:43:51.177Z,22.13
2022-11-02T16:46:28.926Z,22.30
2022-11-02T16:49:16.461Z,21.93
2022-11-02T16:51:53.611Z,21.93
2022-11-02T16:54:31.485Z,22.13
2022-11-02T16:57:11.259Z,21.43
2022-11-02T16:59:48.807Z,22.60
2022-11-02T17:02:17.424Z,21.57
2022-11-02T17:04:48.149Z,22.07
2022-11-02T17:07:22.099Z,21.80
2022-11-02T17:09:54.474Z,21.60
2022-11-02T17:12:33.297Z,23.17
2022-11-02T17:15:05.016Z,21.47
2022-11-02T17:17:38.601Z,20.63
2022-11-02T17:20:16.779Z,20.60
2022-11-02T17:22:54.521Z,21.70
2022-11-02T17:25:25.109Z,21.50
2022-11-02T17:27:56.155Z,22.27
2022-11-02T17:30:44.878Z,22.00
2022-11-02T17:33:32.869Z,22.63
2022-11-02T17:36:07.198Z,23.10
2022-11-02T17:38:36.000Z,23.10
2022-11-02T17:41:24.998Z,22.87
2022-11-02T17:43:53.641Z,23.33
2022-11-02T17:46:21.939Z,23.00
2022-11-02T17:48:50.222Z,21.70
2022-11-02T17:51:21.180Z,23.37
2022-11-02T17:53:50.721Z,22.57
2022-11-02T17:56:18.986Z,22.60
2022-11-02T17:58:47.481Z,22.33
2022-11-02T18:01:18.328Z,22.33
2022-11-02T18:03:46.691Z,22.53
2022-11-02T18:06:14.997Z,22.67
2022-11-02T18:09:01.108Z,22.50
2022-11-02T18:11:29.539Z,23.13
2022-11-02T18:13:57.893Z,25.33
2022-11-02T18:16:27.494Z,25.13
2022-11-02T18:18:55.790Z,25.63
2022-11-02T18:21:24.063Z,25.10
2022-11-02T18:23:52.335Z,24.07
2022-11-02T18:26:20.556Z,25.10
2022-11-02T18:28:48.849Z,25.23
2022-11-02T18:31:17.258Z,23.43
2022-11-02T18:33:47.659Z,24.40
2022-11-02T18:36:15.883Z,25.20
2022-11-02T18:38:44.182Z,24.17
2022-11-02T18:41:31.911Z,23.87
2022-11-02T18:44:04.897Z,24.87
2022-11-02T18:46:36.516Z,24.37
2022-11-02T18:49:06.074Z,25.50
2022-11-02T18:51:34.967Z,23.47
2022-11-02T18:54:05.120Z,24.03
2022-11-02T18:56:33.510Z,25.10
2022-11-02T18:59:02.185Z,25.10
2022-11-02T19:01:30.586Z,24.20
2022-11-02T19:04:00.564Z,23.80
2022-11-02T19:06:49.858Z,24.57
2022-11-02T19:09:19.395Z,25.23
2022-11-02T19:11:53.538Z,25.40
2022-11-02T19:14:23.760Z,25.70
2022-11-02T19:16:52.059Z,24.73
2022-11-02T19:19:20.574Z,24.43
2022-11-02T19:21:50.159Z,23.90
2022-11-02T19:24:18.479Z,23.90
2022-11-02T19:26:46.790Z,22.80
2022-11-02T19:29:15.249Z,22.90
2022-11-02T19:31:44.302Z,23.37
2022-11-02T19:34:13.079Z,23.67
2022-11-02T19:36:41.348Z,24.63
2022-11-02T19:39:11.627Z,25.10
2022-11-02T19:41:40.433Z,24.70
2022-11-02T19:44:08.969Z,24.80
2022-11-02T19:46:37.320Z,24.10
2022-11-02T19:49:05.665Z,24.70
2022-11-02T19:51:34.021Z,24.63
2022-11-02T19:54:03.743Z,25.10
2022-11-02T19:56:35.085Z,24.57
2022-11-02T19:59:04.376Z,24.00
2022-11-02T20:01:34.442Z,23.83
2022-11-02T20:04:03.049Z,25.57
2022-11-02T20:06:35.621Z,24.30
2022-11-02T20:09:05.662Z,23.20
2022-11-02T20:11:36.252Z,23.20
2022-11-02T20:14:05.240Z,23.60
2022-11-02T20:16:33.526Z,24.50
2022-11-02T20:19:01.895Z,25.63
2022-11-02T20:21:36.866Z,26.03
2022-11-02T20:24:08.923Z,25.57
2022-11-02T20:26:40.892Z,25.23
2022-11-02T20:29:12.411Z,25.03
2022-11-02T20:31:44.291Z,24.20
2022-11-02T20:34:14.514Z,24.37
2022-11-02T20:36:42.840Z,24.33
2022-11-02T20:39:12.184Z,24.63
2022-11-02T20:41:41.802Z,25.33
2022-11-02T20:44:10.145Z,24.33
2022-11-02T20:46:41.595Z,24.70
2022-11-02T20:49:21.832Z,24.30
2022-11-02T20:51:57.884Z,24.17
2022-11-02T20:54:29.579Z,23.77
2022-11-02T20:56:59.457Z,23.30
2022-11-02T20:59:27.728Z,24.40
2022-11-02T21:01:56.172Z,24.70
2022-11-02T21:04:24.590Z,25.50
2022-11-02T21:06:52.890Z,24.47
2022-11-02T21:09:21.247Z,24.20
2022-11-02T21:12:06.783Z,23.90
2022-11-02T21:14:36.378Z,25.33
2022-11-02T21:17:06.779Z,24.67
2022-11-02T21:19:35.092Z,25.50
2022-11-02T21:22:03.308Z,24.57
2022-11-02T21:24:31.548Z,23.77
2022-11-02T21:26:59.865Z,24.40
2022-11-02T21:29:28.166Z,24.77
2022-11-02T21:31:57.748Z,25.00
2022-11-02T21:34:26.203Z,25.50
2022-11-02T21:36:54.485Z,25.60
2022-11-02T21:39:22.751Z,25.13
2022-11-02T21:41:51.147Z,23.60
2022-11-02T21:44:19.403Z,23.37
2022-11-02T21:46:47.646Z,24.10
2022-11-02T21:49:17.177Z,23.33
2022-11-02T21:51:45.838Z,24.60
2022-11-02T21:54:14.128Z,24.83
2022-11-02T21:56:43.256Z,25.13
2022-11-02T21:59:11.500Z,24.93
2022-11-02T22:01:45.193Z,24.50
2022-11-02T22:04:17.395Z,25.27
2022-11-02T22:06:45.626Z,25.17
2022-11-02T22:09:14.841Z,24.97
2022-11-02T22:11:44.988Z,25.53
2022-11-02T22:14:13.788Z,24.33
2022-11-02T22:16:43.740Z,24.13
2022-11-02T22:19:13.447Z,24.10
2022-11-02T22:21:44.435Z,24.33
2022-11-02T22:24:13.310Z,24.80
2022-11-02T22:26:41.978Z,25.13
2022-11-02T22:29:10.428Z,25.07
2022-11-02T22:31:41.770Z,25.70
2022-11-02T22:34:11.500Z,26.47
2022-11-02T22:36:43.606Z,25.53
2022-11-02T22:39:12.923Z,25.97
2022-11-02T22:41:42.303Z,26.07
2022-11-02T22:44:12.447Z,26.70
2022-11-02T22:46:42.287Z,25.20
2022-11-02T22:49:11.995Z,25.53
2022-11-02T22:51:44.049Z,26.03
2022-11-02T22:54:15.507Z,25.90
2022-11-02T22:56:44.906Z,26.30
2022-11-02T22:59:13.989Z,26.83
2022-11-02T23:01:43.061Z,26.30
2022-11-02T23:04:12.377Z,26.50
2022-11-02T23:06:41.185Z,26.80
2022-11-02T23:09:12.334Z,24.70
2022-11-02T23:11:40.695Z,25.93
2022-11-02T23:14:10.736Z,26.57
2022-11-02T23:16:40.447Z,25.23
2022-11-02T23:19:30.028Z,27.57
2022-11-02T23:22:17.498Z,26.47
2022-11-02T23:25:06.377Z,26.23
2022-11-02T23:27:56.025Z,26.90
2022-11-02T23:30:42.605Z,25.73
2022-11-02T23:33:10.876Z,25.33
2022-11-02T23:35:57.260Z,26.17
2022-11-02T23:38:45.474Z,24.97
2022-11-02T23:41:15.312Z,24.70
2022-11-02T23:43:43.568Z,24.40
2022-11-02T23:46:12.674Z,25.20
2022-11-02T23:48:42.652Z,25.17
2022-11-02T23:51:28.781Z,25.13
2022-11-02T23:54:14.930Z,25.33
2022-11-02T23:56:44.657Z,26.50
2022-11-02T23:59:13.244Z,24.70
